createdAt,value
2019-01-13T00:01:55.466Z,94.50
2019-01-13T00:04:24.465Z,94.35
2019-01-13T00:06:53.781Z,94.85
2019-01-13T00:09:22.989Z,94.88
2019-01-13T00:11:52.117Z,94.99
2019-01-13T00:14:21.687Z,94.85
2019-01-13T00:16:50.782Z,95.18
2019-01-13T00:19:19.569Z,95.10
2019-01-13T00:21:48.631Z,95.14
2019-01-13T00:24:18.323Z,95.06
2019-01-13T00:26:48.167Z,95.29
2019-01-13T00:29:17.377Z,95.44
2019-01-13T00:31:46.158Z,95.49
2019-01-13T00:34:15.133Z,95.70
2019-01-13T00:36:43.997Z,95.79
2019-01-13T00:39:13.101Z,95.86
2019-01-13T00:41:42.000Z,95.71
2019-01-13T00:44:10.951Z,95.69
2019-01-13T00:46:40.151Z,95.86
2019-01-13T00:49:09.254Z,95.76
2019-01-13T00:51:38.347Z,95.76
2019-01-13T00:54:07.367Z,95.56
2019-01-13T00:56:36.764Z,95.27
2019-01-13T00:59:05.982Z,95.15
2019-01-13T01:01:35.102Z,95.02
2019-01-13T01:04:04.255Z,94.87
2019-01-13T01:06:33.228Z,94.75
2019-01-13T01:09:02.180Z,94.87
2019-01-13T01:11:31.319Z,94.93
2019-01-13T01:14:00.128Z,94.95
2019-01-13T01:16:29.257Z,94.90
2019-01-13T01:18:58.101Z,95.09
2019-01-13T01:21:27.324Z,94.94
2019-01-13T01:23:56.178Z,94.89
2019-01-13T01:26:25.262Z,94.80
2019-01-13T01:28:54.041Z,94.36
2019-01-13T01:31:22.914Z,94.33
2019-01-13T01:33:51.773Z,94.22
2019-01-13T01:36:20.741Z,94.29
2019-01-13T01:38:50.028Z,94.52
2019-01-13T01:41:19.414Z,94.46
2019-01-13T01:43:48.190Z,94.42
2019-01-13T01:46:17.044Z,94.62
2019-01-13T01:48:45.848Z,94.88
2019-01-13T01:51:14.625Z,94.94
2019-01-13T01:53:43.603Z,94.87
2019-01-13T01:56:12.579Z,95.06
2019-01-13T01:58:41.654Z,95.13
2019-01-13T02:01:10.831Z,95.13
2019-01-13T02:03:39.854Z,95.08
2019-01-13T02:06:09.006Z,94.80
2019-01-13T02:08:38.242Z,94.76
2019-01-13T02:11:07.713Z,94.90
2019-01-13T02:13:36.569Z,94.73
2019-01-13T02:16:05.498Z,94.60
2019-01-13T02:18:34.292Z,94.81
2019-01-13T02:21:03.207Z,94.87
2019-01-13T02:23:31.990Z,94.76
2019-01-13T02:26:00.844Z,94.89
2019-01-13T02:28:29.586Z,94.90
2019-01-13T02:30:58.468Z,95.15
2019-01-13T02:33:27.498Z,95.76
2019-01-13T02:35:56.839Z,96.01
2019-01-13T02:38:25.765Z,96.20
2019-01-13T02:40:54.683Z,95.95
2019-01-13T02:43:23.525Z,95.89
2019-01-13T02:45:52.315Z,95.88
2019-01-13T02:48:21.376Z,95.68
2019-01-13T02:50:50.505Z,95.87
2019-01-13T02:53:20.937Z,96.06
2019-01-13T02:55:50.139Z,96.45
2019-01-13T02:58:18.927Z,96.40
2019-01-13T03:00:47.791Z,96.56
2019-01-13T03:03:16.687Z,96.47
2019-01-13T03:05:45.900Z,96.51
2019-01-13T03:08:14.773Z,96.45
2019-01-13T03:10:43.658Z,96.21
2019-01-13T03:13:13.002Z,95.95
2019-01-13T03:15:41.761Z,95.89
2019-01-13T03:18:10.968Z,95.80
2019-01-13T03:20:39.806Z,95.93
2019-01-13T03:23:08.693Z,95.83
2019-01-13T03:25:37.651Z,95.58
2019-01-13T03:28:07.467Z,95.50
2019-01-13T03:30:36.503Z,95.34
2019-01-13T03:33:05.719Z,95.26
2019-01-13T03:35:34.541Z,95.30
2019-01-13T03:38:04.372Z,95.20
2019-01-13T03:40:33.352Z,95.28
2019-01-13T03:43:02.262Z,95.35
2019-01-13T03:45:31.273Z,95.49
2019-01-13T03:48:00.157Z,95.36
2019-01-13T03:50:28.914Z,95.58
2019-01-13T03:52:57.747Z,95.80
2019-01-13T03:55:26.792Z,96.02
2019-01-13T03:57:55.764Z,96.13
2019-01-13T04:00:26.158Z,95.99
2019-01-13T04:02:55.116Z,96.08
2019-01-13T04:05:24.089Z,96.20
2019-01-13T04:07:53.665Z,96.23
2019-01-13T04:10:40.796Z,96.07
2019-01-13T04:13:09.800Z,96.13
2019-01-13T04:16:07.442Z,96.00
2019-01-13T04:18:36.462Z,96.11
2019-01-13T04:21:05.545Z,96.11
2019-01-13T04:23:34.665Z,95.92
2019-01-13T04:26:03.648Z,95.58
2019-01-13T04:29:14.252Z,95.64
2019-01-13T04:31:43.518Z,95.73
2019-01-13T04:34:12.330Z,95.94
2019-01-13T04:36:41.223Z,96.02
2019-01-13T04:39:10.100Z,95.94
2019-01-13T04:41:38.908Z,96.00
2019-01-13T04:44:07.828Z,96.00
2019-01-13T04:46:38.628Z,95.92
2019-01-13T04:49:07.527Z,96.14
2019-01-13T04:51:36.374Z,96.19
2019-01-13T04:54:05.721Z,96.12
2019-01-13T04:56:34.591Z,96.31
2019-01-13T04:59:03.518Z,96.30
2019-01-13T05:01:34.845Z,96.37
2019-01-13T05:04:03.492Z,96.06
2019-01-13T05:06:32.641Z,96.13
2019-01-13T05:09:01.491Z,96.09
2019-01-13T05:11:30.665Z,96.27
2019-01-13T05:13:59.620Z,96.25
2019-01-13T05:16:28.509Z,96.21
2019-01-13T05:18:57.709Z,96.03
2019-01-13T05:21:26.527Z,95.96
2019-01-13T05:23:55.425Z,95.98
2019-01-13T05:26:24.379Z,95.89
2019-01-13T05:28:53.192Z,95.85
2019-01-13T05:31:22.011Z,95.85
2019-01-13T05:33:50.901Z,95.93
2019-01-13T05:36:19.954Z,95.94
2019-01-13T05:38:48.819Z,95.92
2019-01-13T05:41:17.826Z,95.86
2019-01-13T05:43:46.761Z,96.04
2019-01-13T05:46:15.592Z,95.96
2019-01-13T05:48:44.349Z,95.90
2019-01-13T05:51:13.419Z,95.71
2019-01-13T05:53:42.438Z,95.91
2019-01-13T05:56:11.215Z,95.85
2019-01-13T05:58:40.217Z,95.99
2019-01-13T06:01:09.637Z,96.33
2019-01-13T06:03:38.538Z,96.29
2019-01-13T06:06:07.506Z,96.22
2019-01-13T06:08:37.311Z,96.20
2019-01-13T06:11:06.338Z,96.39
2019-01-13T06:13:35.148Z,96.38
2019-01-13T06:16:04.310Z,96.37
2019-01-13T06:18:33.177Z,96.29
2019-01-13T06:21:02.080Z,96.50
2019-01-13T06:23:31.159Z,96.52
2019-01-13T06:26:00.026Z,96.57
2019-01-13T06:28:29.127Z,96.49
2019-01-13T06:30:58.034Z,96.67
2019-01-13T06:33:26.921Z,96.54
2019-01-13T06:35:55.834Z,96.61
2019-01-13T06:38:25.336Z,96.78
2019-01-13T06:40:54.344Z,96.66
2019-01-13T06:43:23.144Z,96.58
2019-01-13T06:45:52.047Z,96.57
2019-01-13T06:48:21.135Z,96.51
2019-01-13T06:50:50.054Z,96.44
2019-01-13T06:53:18.880Z,96.39
2019-01-13T06:55:48.031Z,96.37
2019-01-13T06:58:17.172Z,96.55
2019-01-13T07:00:46.081Z,96.48
2019-01-13T07:03:15.014Z,96.34
2019-01-13T07:05:43.795Z,96.02
2019-01-13T07:08:12.978Z,96.11
2019-01-13T07:10:41.906Z,96.12
2019-01-13T07:13:10.885Z,96.04
2019-01-13T07:15:39.812Z,96.13
2019-01-13T07:18:09.720Z,96.27
2019-01-13T07:20:38.662Z,96.36
2019-01-13T07:23:07.893Z,96.33
2019-01-13T07:25:36.797Z,96.42
2019-01-13T07:28:05.868Z,96.57
2019-01-13T07:30:34.792Z,96.63
2019-01-13T07:33:03.814Z,96.73
2019-01-13T07:35:32.688Z,96.81
2019-01-13T07:38:01.767Z,96.82
2019-01-13T07:40:30.627Z,96.84
2019-01-13T07:42:59.437Z,96.87
2019-01-13T07:45:29.633Z,96.85
2019-01-13T07:47:58.671Z,96.97
2019-01-13T07:50:33.051Z,96.97
2019-01-13T07:53:07.115Z,96.88
2019-01-13T07:55:36.024Z,96.99
2019-01-13T07:58:21.395Z,96.98
2019-01-13T08:00:50.344Z,97.12
2019-01-13T08:03:19.102Z,97.04
2019-01-13T08:05:48.027Z,97.12
2019-01-13T08:08:16.973Z,97.10
2019-01-13T08:10:46.090Z,97.26
2019-01-13T08:13:14.877Z,97.21
2019-01-13T08:15:43.757Z,97.28
2019-01-13T08:18:12.664Z,97.28
2019-01-13T08:20:41.524Z,97.37
2019-01-13T08:23:14.004Z,97.34
2019-01-13T08:25:43.197Z,97.39
2019-01-13T08:28:16.269Z,97.32
2019-01-13T08:30:45.308Z,97.33
2019-01-13T08:33:26.319Z,97.25
2019-01-13T08:35:55.251Z,97.32
2019-01-13T08:38:24.105Z,97.29
2019-01-13T08:40:52.982Z,97.25
2019-01-13T08:43:22.073Z,97.35
2019-01-13T08:45:51.015Z,97.39
2019-01-13T08:48:20.105Z,97.33
2019-01-13T08:50:49.033Z,97.30
2019-01-13T08:53:18.153Z,97.43
2019-01-13T08:55:47.064Z,97.36
2019-01-13T08:58:16.029Z,97.37
2019-01-13T09:00:44.900Z,97.37
2019-01-13T09:03:14.163Z,97.30
2019-01-13T09:05:46.746Z,97.43
2019-01-13T09:08:15.727Z,97.36
2019-01-13T09:10:44.603Z,97.32
2019-01-13T09:13:19.628Z,97.44
2019-01-13T09:16:04.074Z,97.55
2019-01-13T09:18:33.047Z,97.55
2019-01-13T09:21:02.405Z,97.59
2019-01-13T09:23:31.173Z,97.69
2019-01-13T09:26:00.094Z,97.76
2019-01-13T09:28:28.876Z,97.85
2019-01-13T09:30:57.682Z,97.83
2019-01-13T09:33:26.476Z,97.81
2019-01-13T09:35:55.352Z,97.93
2019-01-13T09:38:24.168Z,97.95
2019-01-13T09:41:04.664Z,97.96
2019-01-13T09:43:37.591Z,98.01
2019-01-13T09:46:06.448Z,97.96
2019-01-13T09:48:35.599Z,98.13
2019-01-13T09:51:04.590Z,98.18
2019-01-13T09:53:33.545Z,98.17
2019-01-13T09:56:05.117Z,98.15
2019-01-13T09:58:34.573Z,98.19
2019-01-13T10:01:03.434Z,98.22
2019-01-13T10:03:32.237Z,98.31
2019-01-13T10:06:01.128Z,98.31
2019-01-13T10:08:35.905Z,98.27
2019-01-13T10:11:04.852Z,98.30
2019-01-13T10:13:33.738Z,98.19
2019-01-13T10:16:02.603Z,98.37
2019-01-13T10:18:33.952Z,98.31
2019-01-13T10:21:02.913Z,98.29
2019-01-13T10:23:32.126Z,98.42
2019-01-13T10:26:00.955Z,98.41
2019-01-13T10:28:30.051Z,98.30
2019-01-13T10:31:03.156Z,98.33
2019-01-13T10:33:29.456Z,98.29
2019-01-13T10:35:58.367Z,98.27
2019-01-13T10:38:27.218Z,98.25
2019-01-13T10:40:56.108Z,98.23
2019-01-13T10:43:25.106Z,98.27
2019-01-13T10:45:53.901Z,98.21
2019-01-13T10:48:23.043Z,98.12
2019-01-13T10:50:52.339Z,98.14
2019-01-13T10:53:21.459Z,98.29
2019-01-13T10:55:50.338Z,98.08
2019-01-13T10:58:19.163Z,98.12
2019-01-13T11:00:47.990Z,98.21
2019-01-13T11:03:17.531Z,98.21
2019-01-13T11:05:46.597Z,98.19
2019-01-13T11:08:15.453Z,98.11
2019-01-13T11:10:44.514Z,98.03
2019-01-13T11:13:13.900Z,98.00
2019-01-13T11:15:43.475Z,97.96
2019-01-13T11:18:13.219Z,98.06
2019-01-13T11:20:42.268Z,97.95
2019-01-13T11:23:11.378Z,98.00
2019-01-13T11:25:40.620Z,97.95
2019-01-13T11:28:10.587Z,97.92
2019-01-13T11:30:39.735Z,97.95
2019-01-13T11:33:09.838Z,97.94
2019-01-13T11:35:39.655Z,97.96
2019-01-13T11:38:10.424Z,97.96
2019-01-13T11:40:39.449Z,98.11
2019-01-13T11:43:19.075Z,98.08
2019-01-13T11:45:47.957Z,98.04
2019-01-13T11:48:16.786Z,98.04
2019-01-13T11:50:45.846Z,98.10
2019-01-13T11:53:15.340Z,98.08
2019-01-13T11:55:44.302Z,97.98
2019-01-13T11:58:15.746Z,97.96
2019-01-13T12:00:46.091Z,97.94
2019-01-13T12:03:16.944Z,97.83
2019-01-13T12:05:46.247Z,97.89
2019-01-13T12:08:15.632Z,97.77
2019-01-13T12:10:44.619Z,97.64
2019-01-13T12:13:13.997Z,97.76
2019-01-13T12:15:42.819Z,97.42
2019-01-13T12:18:12.195Z,97.51
2019-01-13T12:20:41.384Z,97.46
2019-01-13T12:23:10.698Z,97.59
2019-01-13T12:25:42.263Z,97.60
2019-01-13T12:28:11.213Z,97.51
2019-01-13T12:30:40.466Z,97.50
2019-01-13T12:33:10.365Z,97.50
2019-01-13T12:35:39.501Z,97.28
2019-01-13T12:38:08.478Z,96.99
2019-01-13T12:40:37.492Z,97.06
2019-01-13T12:43:07.367Z,97.05
2019-01-13T12:45:36.344Z,97.10
2019-01-13T12:48:05.851Z,97.13
2019-01-13T12:50:34.781Z,97.16
2019-01-13T12:53:03.786Z,97.09
2019-01-13T12:55:32.662Z,97.17
2019-01-13T12:58:02.577Z,96.95
2019-01-13T13:00:31.647Z,97.04
2019-01-13T13:03:00.539Z,97.08
2019-01-13T13:05:29.618Z,97.11
2019-01-13T13:07:58.516Z,97.34
2019-01-13T13:10:32.953Z,97.46
2019-01-13T13:13:01.772Z,97.48
2019-01-13T13:15:30.696Z,97.49
2019-01-13T23:18:29.008Z,70.18
2019-01-13T23:20:57.967Z,71.03
2019-01-13T23:23:26.884Z,71.29
2019-01-13T23:25:55.797Z,70.85
2019-01-13T23:28:24.786Z,70.90
2019-01-13T23:30:53.599Z,69.00
2019-01-13T23:33:22.402Z,69.15
2019-01-13T23:35:51.254Z,69.57
2019-01-13T23:38:20.353Z,69.15
2019-01-13T23:40:49.679Z,69.24
2019-01-13T23:43:18.551Z,69.25
2019-01-13T23:45:47.442Z,69.30
2019-01-13T23:48:17.237Z,69.36
2019-01-13T23:50:46.030Z,69.64
2019-01-13T23:53:14.847Z,68.70
2019-01-13T23:55:43.607Z,69.54
2019-01-13T23:58:12.484Z,69.68
